createdAt,value
2023-01-21T00:00:24.597Z,12.81
2023-01-21T00:01:26.821Z,13.41
2023-01-21T00:02:30.001Z,14.85
2023-01-21T00:03:32.320Z,14.32
2023-01-21T00:04:38.079Z,14.12
2023-01-21T00:05:40.283Z,11.06
2023-01-21T00:06:43.432Z,15.25
2023-01-21T00:07:45.583Z,14.69
2023-01-21T00:08:49.161Z,14.41
2023-01-21T00:09:51.415Z,12.75
2023-01-21T00:10:54.617Z,17.63
2023-01-21T00:11:57.927Z,15.45
2023-01-21T00:13:01.071Z,13.32
2023-01-21T00:14:03.280Z,11.89
2023-01-21T00:15:07.516Z,9.96
2023-01-21T00:16:11.487Z,11.46
2023-01-21T00:17:14.861Z,9.57
2023-01-21T00:18:17.020Z,9.25
2023-01-21T00:19:20.191Z,11.50
2023-01-21T00:20:24.711Z,13.58
2023-01-21T00:21:26.865Z,10.18
2023-01-21T00:22:30.783Z,9.25
2023-01-21T00:23:33.001Z,8.55
2023-01-21T00:24:36.164Z,9.44
2023-01-21T00:25:38.341Z,12.62
2023-01-21T00:26:41.814Z,14.24
2023-01-21T00:27:43.934Z,15.51
2023-01-21T00:28:47.035Z,12.98
2023-01-21T00:29:49.247Z,11.57
2023-01-21T00:30:52.713Z,11.70
2023-01-21T00:31:55.997Z,12.55
2023-01-21T00:32:58.229Z,12.79
2023-01-21T00:34:01.393Z,12.42
2023-01-21T00:35:03.954Z,11.37
2023-01-21T00:36:10.915Z,15.97
2023-01-21T00:37:13.119Z,12.03
2023-01-21T00:38:16.241Z,13.99
2023-01-21T00:39:18.654Z,13.80
2023-01-21T00:40:22.729Z,13.67
2023-01-21T00:41:25.246Z,10.71
2023-01-21T00:42:28.736Z,13.08
2023-01-21T00:43:31.359Z,13.78
2023-01-21T00:44:34.513Z,13.10
2023-01-21T00:45:37.115Z,12.21
2023-01-21T00:46:40.291Z,11.26
2023-01-21T00:47:42.595Z,14.87
2023-01-21T00:48:46.067Z,13.64
2023-01-21T00:49:49.521Z,12.16
2023-01-21T00:50:52.135Z,11.42
2023-01-21T00:51:57.628Z,14.03
2023-01-21T00:52:59.825Z,17.00
2023-01-21T00:54:03.059Z,15.07
2023-01-21T00:55:05.812Z,18.84
2023-01-21T00:56:12.607Z,17.86
2023-01-21T00:57:15.090Z,15.60
2023-01-21T00:58:18.478Z,11.75
2023-01-21T00:59:20.724Z,13.77
2023-01-21T01:00:24.188Z,12.32
2023-01-21T01:01:27.948Z,13.18
2023-01-21T01:02:31.381Z,13.40
2023-01-21T01:03:34.066Z,12.23
2023-01-21T01:04:37.488Z,14.45
2023-01-21T01:05:39.712Z,17.02
2023-01-21T01:06:42.945Z,15.82
2023-01-21T01:07:47.670Z,12.51
2023-01-21T01:08:51.901Z,10.91
2023-01-21T01:09:54.117Z,15.14
2023-01-21T01:10:57.494Z,12.84
2023-01-21T01:11:59.774Z,13.54
2023-01-21T01:13:02.911Z,10.31
2023-01-21T01:14:05.751Z,8.17
2023-01-21T01:15:10.085Z,8.42
2023-01-21T01:16:14.583Z,7.93
2023-01-21T01:17:17.747Z,6.82
2023-01-21T01:18:19.899Z,7.84
2023-01-21T01:19:23.017Z,9.83
2023-01-21T01:20:25.160Z,8.12
2023-01-21T01:21:28.390Z,7.73
2023-01-21T01:22:30.617Z,12.24
2023-01-21T01:23:35.122Z,12.93
2023-01-21T01:24:37.379Z,15.68
2023-01-21T01:25:40.461Z,13.99
2023-01-21T01:26:42.771Z,9.41
2023-01-21T01:27:45.892Z,11.80
2023-01-21T01:28:48.686Z,15.24
2023-01-21T01:29:51.845Z,13.82
2023-01-21T01:30:55.047Z,13.10
2023-01-21T01:31:58.331Z,16.86
2023-01-21T01:33:00.615Z,19.27
2023-01-21T01:34:03.858Z,15.52
2023-01-21T01:35:06.410Z,15.40
2023-01-21T01:36:13.446Z,14.38
2023-01-21T01:37:15.652Z,11.51
2023-01-21T01:38:21.049Z,11.12
2023-01-21T01:39:24.673Z,10.24
2023-01-21T01:40:27.822Z,13.19
2023-01-21T01:41:32.663Z,13.43
2023-01-21T01:42:35.815Z,10.06
2023-01-21T01:44:00.544Z,11.61
2023-01-21T01:45:05.602Z,11.55
2023-01-21T01:46:08.834Z,11.43
2023-01-21T01:47:11.660Z,12.70
2023-01-21T01:48:22.505Z,15.44
2023-01-21T01:49:24.892Z,15.86
2023-01-21T01:50:32.369Z,11.18
2023-01-21T01:51:48.111Z,14.38
2023-01-21T01:52:50.336Z,15.12
2023-01-21T01:53:54.801Z,17.95
2023-01-21T01:55:01.101Z,20.54
2023-01-21T01:56:04.787Z,14.48
2023-01-21T01:57:12.762Z,12.32
2023-01-21T01:58:20.248Z,12.38
2023-01-21T01:59:22.728Z,14.03
2023-01-21T02:00:27.158Z,16.10
2023-01-21T02:01:29.435Z,18.17
2023-01-21T02:02:34.101Z,21.28
2023-01-21T02:03:44.686Z,21.10
2023-01-21T02:04:54.015Z,20.19
2023-01-21T02:05:56.382Z,20.44
2023-01-21T02:06:59.773Z,22.64
2023-01-21T02:08:02.772Z,20.98
2023-01-21T02:09:05.944Z,20.27
2023-01-21T02:10:13.703Z,14.78
2023-01-21T02:11:19.269Z,13.52
2023-01-21T02:12:22.553Z,14.78
2023-01-21T02:13:29.068Z,17.31
2023-01-21T02:14:33.707Z,15.23
2023-01-21T02:15:47.042Z,15.60
2023-01-21T02:17:08.389Z,15.38
2023-01-21T02:18:19.879Z,12.62
2023-01-21T02:19:57.832Z,11.55
2023-01-21T02:21:29.058Z,11.38
2023-01-21T02:22:40.313Z,16.10
2023-01-21T02:24:11.247Z,13.32
2023-01-21T02:25:42.326Z,13.57
2023-01-21T02:27:30.482Z,18.85
2023-01-21T02:28:58.061Z,17.17
2023-01-21T02:30:38.345Z,18.23
2023-01-21T02:32:11.671Z,12.39
2023-01-21T02:33:53.657Z,13.14
2023-01-21T02:35:01.714Z,16.02
2023-01-21T02:36:18.468Z,16.81
2023-01-21T02:37:30.594Z,14.37
2023-01-21T02:38:43.714Z,12.49
2023-01-21T02:40:06.428Z,14.06
2023-01-21T02:41:20.027Z,16.66
2023-01-21T02:42:33.734Z,13.98
2023-01-21T02:43:44.568Z,16.44
2023-01-21T02:44:57.838Z,12.79
2023-01-21T02:46:06.220Z,11.77
2023-01-21T02:47:20.296Z,10.36
2023-01-21T02:48:31.556Z,12.84
2023-01-21T02:49:41.197Z,13.58
2023-01-21T02:50:48.225Z,11.22
2023-01-21T02:51:51.883Z,10.80
2023-01-21T02:52:58.241Z,12.69
2023-01-21T02:54:01.375Z,11.77
2023-01-21T02:55:04.852Z,9.74
2023-01-21T02:56:13.438Z,9.42
2023-01-21T02:57:21.611Z,9.03
2023-01-21T02:58:30.167Z,9.33
2023-01-21T02:59:34.163Z,12.59
2023-01-21T03:00:55.287Z,11.14
2023-01-21T03:02:13.562Z,11.02
2023-01-21T03:03:37.446Z,11.25
2023-01-21T03:04:56.274Z,11.62
2023-01-21T03:06:30.115Z,13.56
2023-01-21T03:07:35.333Z,14.66
2023-01-21T03:08:47.232Z,13.73
2023-01-21T03:09:49.439Z,17.75
2023-01-21T03:11:03.117Z,18.28
2023-01-21T03:12:26.987Z,17.99
2023-01-21T03:14:01.787Z,18.97
2023-01-21T03:15:28.759Z,15.92
2023-01-21T03:16:58.547Z,18.49
2023-01-21T03:18:10.271Z,17.51
2023-01-21T03:19:17.193Z,16.53
2023-01-21T03:20:28.459Z,14.50
2023-01-21T03:21:34.012Z,13.74
2023-01-21T03:22:40.131Z,17.96
2023-01-21T03:23:48.767Z,15.69
2023-01-21T03:24:57.189Z,13.47
2023-01-21T03:26:01.446Z,14.50
2023-01-21T03:27:10.089Z,14.30
2023-01-21T03:28:17.298Z,14.84
2023-01-21T03:29:25.958Z,14.23
2023-01-21T03:30:31.352Z,13.93
2023-01-21T03:31:38.826Z,14.15
2023-01-21T03:32:49.242Z,14.74
2023-01-21T03:33:56.033Z,14.41
2023-01-21T03:35:03.172Z,16.03
2023-01-21T03:36:15.078Z,16.09
2023-01-21T03:37:24.841Z,15.20
2023-01-21T03:38:32.459Z,14.12
2023-01-21T03:39:42.746Z,15.14
2023-01-21T03:40:53.794Z,16.50
2023-01-21T03:41:56.361Z,12.70
2023-01-21T03:42:59.667Z,13.72
2023-01-21T03:44:02.103Z,12.52
2023-01-21T03:45:06.519Z,16.79
2023-01-21T03:49:13.772Z,14.63
2023-01-21T03:50:21.632Z,12.15
2023-01-21T03:51:33.997Z,12.81
2023-01-21T03:52:40.901Z,15.18
2023-01-21T03:53:45.842Z,16.08
2023-01-21T03:54:49.167Z,14.92
2023-01-21T03:55:53.178Z,16.37
2023-01-21T03:56:55.363Z,14.71
2023-01-21T03:57:58.541Z,15.77
2023-01-21T03:59:02.338Z,16.54
2023-01-21T04:00:07.600Z,16.86
2023-01-21T04:01:09.937Z,16.05
2023-01-21T04:02:13.800Z,15.24
2023-01-21T04:03:16.082Z,17.45
2023-01-21T04:04:19.271Z,15.98
2023-01-21T04:05:21.527Z,12.64
2023-01-21T04:06:26.073Z,14.11
2023-01-21T04:07:29.251Z,12.40
2023-01-21T04:08:31.361Z,12.65
2023-01-21T04:09:34.502Z,13.64
2023-01-21T04:10:36.731Z,14.26
2023-01-21T04:11:39.907Z,15.48
2023-01-21T04:12:42.095Z,14.83
2023-01-21T04:13:45.233Z,15.52
2023-01-21T04:14:47.360Z,14.37
2023-01-21T04:15:50.475Z,14.19
2023-01-21T04:16:52.711Z,14.65
2023-01-21T04:17:55.911Z,15.44
2023-01-21T04:18:58.038Z,15.39
2023-01-21T04:20:01.269Z,15.98
2023-01-21T04:21:03.488Z,15.78
2023-01-21T04:22:08.003Z,14.67
2023-01-21T04:23:10.666Z,16.26
2023-01-21T04:24:13.786Z,15.06
2023-01-21T04:25:16.052Z,13.04
2023-01-21T04:26:19.212Z,13.81
2023-01-21T04:27:21.355Z,14.19
2023-01-21T04:28:24.620Z,15.50
2023-01-21T04:29:26.983Z,13.92
2023-01-21T04:30:30.394Z,13.25
2023-01-21T04:31:32.637Z,14.64
2023-01-21T04:32:37.190Z,15.83
2023-01-21T04:33:39.415Z,17.04
2023-01-21T04:34:42.583Z,15.56
2023-01-21T04:35:44.767Z,14.27
2023-01-21T04:36:48.016Z,14.72
2023-01-21T04:37:51.542Z,14.53
2023-01-21T04:38:54.885Z,14.56
2023-01-21T04:39:57.077Z,14.03
2023-01-21T04:41:00.280Z,12.68
2023-01-21T04:42:02.847Z,11.55
2023-01-21T04:43:06.032Z,12.92
2023-01-21T04:44:08.367Z,11.27
2023-01-21T04:45:12.083Z,11.13
2023-01-21T04:46:14.332Z,12.53
2023-01-21T04:47:17.688Z,12.01
2023-01-21T04:48:19.931Z,11.39
2023-01-21T04:49:23.118Z,9.33
2023-01-21T04:50:25.480Z,12.45
2023-01-21T04:51:28.706Z,11.53
2023-01-21T04:52:31.205Z,10.06
2023-01-21T04:53:35.791Z,9.90
2023-01-21T04:54:37.956Z,10.95
2023-01-21T04:55:41.219Z,10.77
2023-01-21T04:56:43.433Z,11.78
2023-01-21T04:57:46.656Z,14.13
2023-01-21T04:58:48.847Z,10.89
2023-01-21T04:59:52.125Z,11.88
2023-01-21T05:00:55.169Z,12.07
2023-01-21T05:01:58.457Z,13.64
2023-01-21T05:03:00.757Z,9.86
2023-01-21T05:04:04.051Z,8.47
2023-01-21T05:05:07.067Z,9.46
2023-01-21T05:06:10.538Z,11.62
2023-01-21T05:07:13.221Z,10.48
2023-01-21T05:08:16.377Z,9.67
2023-01-21T05:09:19.845Z,10.03
2023-01-21T05:10:23.059Z,11.67
2023-01-21T05:11:25.500Z,9.01
2023-01-21T05:12:29.007Z,7.54
2023-01-21T05:13:31.157Z,12.64
2023-01-21T05:14:34.728Z,14.13
2023-01-21T05:15:36.960Z,13.32
2023-01-21T05:16:40.097Z,15.94
2023-01-21T05:17:42.239Z,13.39
2023-01-21T05:18:46.805Z,11.20
2023-01-21T05:19:50.284Z,11.79
2023-01-21T05:20:53.417Z,14.17
2023-01-21T05:21:55.857Z,15.67
2023-01-21T05:22:59.005Z,15.19
2023-01-21T05:24:01.167Z,14.81
2023-01-21T05:25:06.512Z,14.25
2023-01-21T05:26:08.759Z,15.28
2023-01-21T05:27:12.105Z,16.13
2023-01-21T05:28:14.237Z,16.34
2023-01-21T05:29:18.200Z,15.06
2023-01-21T05:30:20.742Z,15.70
2023-01-21T05:31:25.122Z,14.96
2023-01-21T05:32:27.388Z,15.59
2023-01-21T05:33:32.219Z,15.24
2023-01-21T05:34:34.581Z,16.90
2023-01-21T05:35:37.943Z,17.19
2023-01-21T05:36:40.163Z,16.98
2023-01-21T05:37:43.567Z,16.62
2023-01-21T05:38:45.765Z,14.60
2023-01-21T05:39:48.928Z,13.88
2023-01-21T05:40:57.084Z,14.17
2023-01-21T05:42:00.239Z,12.96
2023-01-21T05:43:02.369Z,15.93
2023-01-21T05:44:05.615Z,14.48
2023-01-21T05:45:08.564Z,13.12
2023-01-21T05:46:12.051Z,14.47
2023-01-21T05:47:14.280Z,14.73
2023-01-21T05:48:17.447Z,15.43
2023-01-21T05:49:19.705Z,13.33
2023-01-21T05:50:22.990Z,11.71
2023-01-21T05:51:25.301Z,14.72
2023-01-21T05:52:28.441Z,12.75
2023-01-21T05:53:31.653Z,15.52
2023-01-21T05:54:33.775Z,17.12
2023-01-21T05:55:38.127Z,15.86
2023-01-21T05:56:41.629Z,11.72
2023-01-21T05:57:44.971Z,13.30
2023-01-21T05:58:47.163Z,14.35
2023-01-21T05:59:50.350Z,11.76
2023-01-21T06:00:52.636Z,16.13
2023-01-21T06:01:55.803Z,13.81
2023-01-21T06:03:00.501Z,14.19
2023-01-21T06:04:03.603Z,13.58
2023-01-21T06:05:06.730Z,13.85
2023-01-21T06:06:10.053Z,13.07
2023-01-21T06:07:12.422Z,13.52
2023-01-21T06:08:15.638Z,13.39
2023-01-21T06:09:17.751Z,13.99
2023-01-21T06:10:21.486Z,13.42
2023-01-21T06:11:23.694Z,15.57
2023-01-21T06:12:28.216Z,15.25
2023-01-21T06:13:30.399Z,15.60
2023-01-21T06:14:33.544Z,14.04
2023-01-21T06:15:35.672Z,16.49
2023-01-21T06:16:38.871Z,13.99
2023-01-21T06:17:41.119Z,18.78
2023-01-21T06:18:44.212Z,16.60
2023-01-21T06:19:46.428Z,16.61
2023-01-21T06:20:49.686Z,16.90
2023-01-21T06:21:53.286Z,18.42
2023-01-21T06:22:56.609Z,18.00
2023-01-21T06:23:58.751Z,14.89
2023-01-21T06:25:01.905Z,13.33
2023-01-21T06:26:04.360Z,16.63
2023-01-21T06:27:07.942Z,15.86
2023-01-21T06:28:12.975Z,14.50
2023-01-21T06:29:16.139Z,11.14
2023-01-21T06:30:18.801Z,10.46
2023-01-21T06:31:22.222Z,11.30
2023-01-21T06:32:24.471Z,16.23
2023-01-21T06:33:27.778Z,18.78
2023-01-21T06:34:29.933Z,16.19
2023-01-21T06:35:33.199Z,13.51
2023-01-21T06:36:36.376Z,9.80
2023-01-21T06:37:39.563Z,14.70
2023-01-21T06:38:41.771Z,16.08
2023-01-21T06:39:44.932Z,13.19
2023-01-21T06:40:47.116Z,12.13
2023-01-21T06:41:50.270Z,14.00
2023-01-21T06:42:53.796Z,12.85
2023-01-21T06:43:58.361Z,17.23
2023-01-21T06:45:00.634Z,13.44
2023-01-21T06:46:03.887Z,12.66
2023-01-21T06:47:06.105Z,15.56
2023-01-21T06:48:09.409Z,15.07
2023-01-21T06:49:11.635Z,15.33
2023-01-21T06:50:17.630Z,14.33
2023-01-21T06:51:21.054Z,14.33
2023-01-21T06:52:24.792Z,10.99
2023-01-21T06:53:27.253Z,16.16
2023-01-21T06:54:30.669Z,17.16
2023-01-21T06:55:33.289Z,17.24
2023-01-21T06:56:36.904Z,17.17
2023-01-21T06:57:41.065Z,16.39
2023-01-21T06:58:43.304Z,13.32
2023-01-21T06:59:47.969Z,17.54
2023-01-21T07:00:50.323Z,15.90
2023-01-21T07:01:53.605Z,15.06
2023-01-21T07:02:57.271Z,12.69
2023-01-21T07:04:01.556Z,15.68
2023-01-21T07:05:04.328Z,16.46
2023-01-21T07:06:08.115Z,14.41
2023-01-21T07:07:10.356Z,17.06
2023-01-21T07:08:13.620Z,16.33
2023-01-21T07:09:15.808Z,14.66
2023-01-21T07:10:19.547Z,12.54
2023-01-21T07:11:21.953Z,14.80
2023-01-21T07:12:25.227Z,16.70
2023-01-21T07:13:28.109Z,15.18
2023-01-21T07:14:31.352Z,17.33
2023-01-21T07:15:34.936Z,17.01
2023-01-21T07:16:38.130Z,26.40
2023-01-21T07:17:40.367Z,45.39
2023-01-21T07:18:43.627Z,30.65
2023-01-21T07:19:45.874Z,30.82
2023-01-21T07:20:49.076Z,25.95
2023-01-21T07:21:51.487Z,20.71
2023-01-21T07:22:54.672Z,15.85
2023-01-21T07:23:56.951Z,16.79
2023-01-21T07:25:00.295Z,19.53
2023-01-21T07:26:02.552Z,17.64
2023-01-21T07:27:06.270Z,16.82
2023-01-21T07:28:08.450Z,20.46
2023-01-21T07:29:11.816Z,22.01
2023-01-21T07:30:19.075Z,18.36
2023-01-21T07:31:23.951Z,15.36
2023-01-21T07:32:26.224Z,16.01
2023-01-21T07:33:30.233Z,18.38
2023-01-21T07:34:32.668Z,21.93
2023-01-21T07:35:36.932Z,19.59
2023-01-21T07:36:39.114Z,16.46
2023-01-21T07:37:42.339Z,16.96
2023-01-21T07:38:44.772Z,17.72
2023-01-21T07:39:47.975Z,17.00
2023-01-21T07:40:50.576Z,19.06
2023-01-21T07:41:54.359Z,15.22
2023-01-21T07:42:57.179Z,16.34
2023-01-21T07:44:00.353Z,15.42
2023-01-21T07:45:03.868Z,16.37
2023-01-21T07:46:07.340Z,16.06
2023-01-21T07:47:11.983Z,16.43
2023-01-21T07:48:14.248Z,17.31
2023-01-21T07:49:18.397Z,17.44
2023-01-21T07:50:20.558Z,18.30
2023-01-21T07:51:24.298Z,17.93
2023-01-21T07:52:26.627Z,16.55
2023-01-21T07:53:29.772Z,15.84
2023-01-21T07:54:33.130Z,16.96
2023-01-21T07:55:36.373Z,17.88
2023-01-21T07:56:38.528Z,15.27
2023-01-21T07:57:41.817Z,15.20
2023-01-21T07:58:44.016Z,16.14
2023-01-21T07:59:47.257Z,18.64
2023-01-21T08:00:50.463Z,18.37
2023-01-21T08:01:53.698Z,18.08
2023-01-21T08:02:59.049Z,17.72
2023-01-21T08:04:01.349Z,19.10
2023-01-21T08:05:04.710Z,18.48
2023-01-21T08:06:07.800Z,18.74
2023-01-21T08:07:13.171Z,17.60
2023-01-21T08:08:15.747Z,17.94
2023-01-21T08:09:19.144Z,17.04
2023-01-21T08:10:22.202Z,16.52
2023-01-21T08:11:27.022Z,16.05
2023-01-21T08:12:29.258Z,15.38
2023-01-21T08:13:32.497Z,16.17
2023-01-21T08:14:35.296Z,17.00
2023-01-21T08:15:38.478Z,14.93
2023-01-21T08:16:42.791Z,15.32
2023-01-21T08:17:47.441Z,16.37
2023-01-21T08:18:51.008Z,16.88
2023-01-21T08:19:54.181Z,15.56
2023-01-21T08:20:58.098Z,16.37
2023-01-21T08:22:01.322Z,15.92
2023-01-21T08:23:03.551Z,15.46
2023-01-21T08:24:07.620Z,14.49
2023-01-21T08:25:11.772Z,15.26
2023-01-21T08:26:19.204Z,15.54
2023-01-21T08:27:21.336Z,15.03
2023-01-21T08:28:24.766Z,14.68
2023-01-21T08:29:27.480Z,13.91
2023-01-21T08:30:30.765Z,13.57
2023-01-21T08:31:33.048Z,13.57
2023-01-21T08:32:37.844Z,13.67
2023-01-21T08:33:41.316Z,14.54
2023-01-21T08:34:44.784Z,13.99
2023-01-21T08:35:48.010Z,13.29
2023-01-21T08:36:51.182Z,13.42
2023-01-21T08:55:38.841Z,12.62
2023-01-21T08:57:26.954Z,11.63
2023-01-21T08:58:51.525Z,12.55
2023-01-21T09:00:32.778Z,12.29
2023-01-21T09:03:34.328Z,11.07
2023-01-21T09:07:07.174Z,12.48
2023-01-21T09:15:18.678Z,8.72
2023-01-21T09:19:09.402Z,7.63
2023-01-21T09:39:28.772Z,9.30
2023-01-21T09:40:47.086Z,7.76
2023-01-21T09:44:55.005Z,8.06
2023-01-21T09:46:05.085Z,7.98
2023-01-21T09:47:21.235Z,7.89
2023-01-21T09:48:30.958Z,7.70
2023-01-21T09:49:41.600Z,8.89
2023-01-21T09:50:50.615Z,7.99
2023-01-21T09:52:06.081Z,7.68
2023-01-21T09:53:27.669Z,7.99
2023-01-21T09:54:33.814Z,8.09
2023-01-21T09:55:43.570Z,8.65
2023-01-21T09:57:26.955Z,8.64
2023-01-21T09:58:38.642Z,8.38
2023-01-21T09:59:55.106Z,9.65
2023-01-21T10:01:07.077Z,8.11
2023-01-21T10:02:24.160Z,8.34
2023-01-21T10:03:38.351Z,9.46
2023-01-21T10:04:53.657Z,9.80
2023-01-21T10:06:22.119Z,8.48
2023-01-21T10:07:31.275Z,8.47
2023-01-21T10:08:49.793Z,9.36
2023-01-21T10:10:07.013Z,8.64
2023-01-21T10:11:30.819Z,10.18
2023-01-21T10:12:56.987Z,9.40
2023-01-21T10:14:18.738Z,9.26
2023-01-21T10:15:39.121Z,9.03
2023-01-21T10:16:50.924Z,9.76
2023-01-21T10:17:59.613Z,9.36
2023-01-21T10:19:06.800Z,9.92
2023-01-21T10:20:16.143Z,9.88
2023-01-21T10:21:33.069Z,9.58
2023-01-21T10:22:35.926Z,10.03
2023-01-21T10:23:44.756Z,9.21
2023-01-21T10:24:53.894Z,9.57
2023-01-21T10:26:02.766Z,10.21
2023-01-21T10:27:07.080Z,10.71
2023-01-21T10:28:19.573Z,10.00
2023-01-21T10:29:26.898Z,11.83
2023-01-21T10:30:36.655Z,12.01
2023-01-21T10:31:45.752Z,11.65
2023-01-21T10:32:52.684Z,11.41
2023-01-21T10:33:56.854Z,12.26
2023-01-21T10:35:00.800Z,10.94
2023-01-21T10:36:24.765Z,11.20
2023-01-21T10:37:38.201Z,12.07
2023-01-21T10:39:00.051Z,12.37
2023-01-21T10:40:17.323Z,13.36
2023-01-21T10:41:35.404Z,12.41
2023-01-21T10:43:01.109Z,12.07
2023-01-21T10:44:19.308Z,12.30
2023-01-21T10:45:35.133Z,11.77
2023-01-21T10:46:50.531Z,12.22
2023-01-21T10:48:04.730Z,13.03
2023-01-21T10:49:22.487Z,12.03
2023-01-21T10:50:55.736Z,11.81
2023-01-21T10:52:08.218Z,11.81
2023-01-21T10:53:24.229Z,11.48
2023-01-21T10:54:43.476Z,11.40
2023-01-21T10:56:05.105Z,11.87
2023-01-21T10:57:21.335Z,11.78
2023-01-21T10:58:34.592Z,11.29
2023-01-21T10:59:41.707Z,11.63
2023-01-21T11:00:50.423Z,11.57
2023-01-21T11:02:04.636Z,11.61
2023-01-21T11:03:17.229Z,10.84
2023-01-21T11:04:24.117Z,11.41
2023-01-21T11:05:27.381Z,11.16
2023-01-21T11:06:34.404Z,11.06
2023-01-21T11:07:42.303Z,10.60
2023-01-21T11:08:49.492Z,10.62
2023-01-21T11:09:53.112Z,10.33
2023-01-21T11:10:57.851Z,9.87
2023-01-21T11:12:02.950Z,10.18
2023-01-21T11:13:12.024Z,9.76
2023-01-21T11:14:15.172Z,10.13
2023-01-21T11:15:20.577Z,9.92
2023-01-21T11:16:36.870Z,9.04
2023-01-21T11:17:43.947Z,8.76
2023-01-21T11:18:47.484Z,9.19
2023-01-21T11:19:58.967Z,8.49
2023-01-21T11:21:10.133Z,9.08
2023-01-21T11:22:22.190Z,9.99
2023-01-21T11:23:28.599Z,10.62
2023-01-21T11:24:33.819Z,11.25
2023-01-21T11:25:38.458Z,10.74
2023-01-21T11:26:52.600Z,10.56
2023-01-21T11:27:55.765Z,9.32
2023-01-21T11:29:14.840Z,9.67
2023-01-21T11:30:54.849Z,9.58
2023-01-21T11:32:06.615Z,8.56
2023-01-21T11:33:14.542Z,9.07
2023-01-21T11:34:20.182Z,9.00
2023-01-21T11:35:24.861Z,8.56
2023-01-21T11:36:28.127Z,9.04
2023-01-21T11:37:33.347Z,8.65
2023-01-21T11:38:37.301Z,8.62
2023-01-21T11:39:51.484Z,8.03
2023-01-21T11:41:17.762Z,6.76
2023-01-21T11:42:21.206Z,8.14
2023-01-21T11:43:35.361Z,8.06
2023-01-21T11:44:52.998Z,7.93
2023-01-21T11:45:57.190Z,7.64
2023-01-21T11:47:00.494Z,6.78
2023-01-21T11:48:19.133Z,6.89
2023-01-21T11:49:26.495Z,6.43
2023-01-21T11:50:31.563Z,7.17
2023-01-21T11:51:34.075Z,7.54
2023-01-21T11:52:37.364Z,7.20
2023-01-21T11:53:41.120Z,6.60
2023-01-21T11:54:45.098Z,7.26
2023-01-21T11:55:51.859Z,6.52
2023-01-21T11:56:57.614Z,6.16
2023-01-21T11:58:00.943Z,6.45
2023-01-21T11:59:13.456Z,6.63
2023-01-21T12:00:21.398Z,7.00
2023-01-21T12:01:25.285Z,6.95
2023-01-21T12:02:32.483Z,7.65
2023-01-21T12:03:42.076Z,6.87
2023-01-21T12:04:49.567Z,7.62
2023-01-21T12:05:54.356Z,8.07
2023-01-21T12:07:00.529Z,7.80
2023-01-21T12:08:06.651Z,7.20
2023-01-21T12:09:19.435Z,6.50
2023-01-21T12:10:31.098Z,9.14
2023-01-21T12:11:33.515Z,7.11
2023-01-21T12:12:53.531Z,6.94
2023-01-21T12:14:06.897Z,7.63
2023-01-21T12:15:25.470Z,9.08
2023-01-21T12:16:33.766Z,8.68
2023-01-21T12:17:50.951Z,8.39
2023-01-21T12:19:29.862Z,7.23
2023-01-21T12:20:41.556Z,8.79
2023-01-21T12:22:05.004Z,8.02
2023-01-21T12:23:34.072Z,6.85
2023-01-21T12:24:54.227Z,8.34
2023-01-21T12:26:02.127Z,6.43
2023-01-21T12:27:18.353Z,6.73
2023-01-21T12:28:40.768Z,6.72
2023-01-21T12:29:57.600Z,6.91
2023-01-21T12:31:13.097Z,6.55
2023-01-21T12:32:25.540Z,7.07
2023-01-21T12:33:48.156Z,6.04
2023-01-21T12:34:58.372Z,7.05
2023-01-21T12:36:09.075Z,7.18
2023-01-21T12:37:19.760Z,6.46
2023-01-21T12:38:30.130Z,7.32
2023-01-21T12:39:37.784Z,7.11
2023-01-21T12:40:47.599Z,7.77
2023-01-21T12:42:00.812Z,7.07
2023-01-21T12:43:14.154Z,6.85
2023-01-21T12:44:27.678Z,7.32
2023-01-21T12:45:39.136Z,6.75
2023-01-21T12:46:46.301Z,7.55
2023-01-21T12:47:57.820Z,7.64
2023-01-21T12:49:07.656Z,8.14
2023-01-21T12:50:27.534Z,9.08
2023-01-21T12:51:37.268Z,9.47
2023-01-21T12:52:51.383Z,7.90
2023-01-21T12:54:01.202Z,7.54
2023-01-21T12:55:19.873Z,7.38
2023-01-21T12:56:33.713Z,7.36
2023-01-21T12:57:43.633Z,10.62
2023-01-21T12:58:54.759Z,9.59
2023-01-21T13:00:04.340Z,10.69
2023-01-21T13:01:13.292Z,10.01
2023-01-21T13:02:25.000Z,10.64
2023-01-21T13:03:41.503Z,9.82
2023-01-21T13:04:54.705Z,10.03
2023-01-21T13:06:04.290Z,9.09
2023-01-21T13:07:20.805Z,8.67
2023-01-21T13:08:48.528Z,8.85
2023-01-21T13:10:02.122Z,8.63
2023-01-21T13:11:16.774Z,9.25
2023-01-21T13:12:23.596Z,8.23
2023-01-21T13:13:35.080Z,8.77
2023-01-21T13:14:42.862Z,9.61
2023-01-21T13:15:51.765Z,10.99
2023-01-21T13:17:02.300Z,10.18
2023-01-21T13:18:15.253Z,13.45
2023-01-21T13:19:18.799Z,11.45
2023-01-21T13:20:23.806Z,9.90
2023-01-21T13:21:37.481Z,8.66
2023-01-21T13:22:48.846Z,9.53
2023-01-21T13:24:00.138Z,9.48
2023-01-21T13:25:26.053Z,8.81
2023-01-21T13:26:37.133Z,9.65
2023-01-21T13:27:52.868Z,8.89
2023-01-21T13:29:03.898Z,9.02
2023-01-21T13:30:21.923Z,9.28
2023-01-21T13:31:32.162Z,7.97
2023-01-21T13:32:47.183Z,7.89
2023-01-21T13:34:01.228Z,7.02
2023-01-21T13:35:19.747Z,7.65
2023-01-21T13:36:39.465Z,8.83
2023-01-21T13:37:52.439Z,8.07
2023-01-21T13:39:05.228Z,7.93
2023-01-21T13:40:32.383Z,7.40
2023-01-21T13:41:52.089Z,7.39
2023-01-21T13:43:07.748Z,7.98
2023-01-21T13:44:44.904Z,7.68
2023-01-21T13:46:03.822Z,7.39
2023-01-21T13:47:20.479Z,7.60
2023-01-21T13:48:40.557Z,7.23
2023-01-21T13:50:19.899Z,6.94
2023-01-21T13:51:36.662Z,6.62
2023-01-21T13:52:51.172Z,6.95
2023-01-21T13:54:20.556Z,7.55
2023-01-21T13:55:39.465Z,7.76
2023-01-21T13:57:08.580Z,7.37
2023-01-21T13:58:14.375Z,7.08
2023-01-21T13:59:25.703Z,7.05
2023-01-21T14:00:33.689Z,6.68
2023-01-21T14:01:44.352Z,7.29
2023-01-21T14:02:55.034Z,7.39
2023-01-21T14:04:05.833Z,7.40
2023-01-21T14:05:19.389Z,7.32
2023-01-21T14:06:30.174Z,7.27
2023-01-21T14:07:38.957Z,7.22
2023-01-21T14:08:47.565Z,7.05
2023-01-21T14:10:00.932Z,7.14
2023-01-21T14:11:12.871Z,7.55
2023-01-21T14:12:21.041Z,7.60
2023-01-21T14:13:57.971Z,7.83
2023-01-21T14:15:24.890Z,7.56
2023-01-21T14:17:01.294Z,7.60
2023-01-21T14:18:37.941Z,8.01
2023-01-21T14:20:07.024Z,7.63
2023-01-21T14:21:46.943Z,6.78
2023-01-21T14:23:14.939Z,7.65
2023-01-21T14:24:36.988Z,7.39
2023-01-21T14:25:55.373Z,6.91
2023-01-21T14:27:16.625Z,6.82
2023-01-21T14:28:27.575Z,7.30
2023-01-21T14:29:36.599Z,6.89
2023-01-21T14:30:46.881Z,7.18
2023-01-21T14:31:58.037Z,7.01
2023-01-21T14:33:08.268Z,6.84
2023-01-21T14:34:19.166Z,7.34
2023-01-21T14:35:28.683Z,8.46
2023-01-21T14:36:43.653Z,9.02
2023-01-21T14:37:55.643Z,7.65
2023-01-21T14:39:14.714Z,8.53
2023-01-21T14:40:23.361Z,8.39
2023-01-21T14:41:46.446Z,9.22
2023-01-21T14:42:53.255Z,9.58
2023-01-21T14:43:55.459Z,7.49
2023-01-21T14:45:09.083Z,9.27
2023-01-21T14:46:27.371Z,10.32
2023-01-21T14:47:47.891Z,8.17
2023-01-21T14:48:58.505Z,6.80
2023-01-21T14:50:01.905Z,7.69
2023-01-21T14:51:21.409Z,6.76
2023-01-21T14:52:32.121Z,5.40
2023-01-21T14:53:46.444Z,8.03
2023-01-21T14:54:50.276Z,8.69
2023-01-21T14:56:16.743Z,7.73
2023-01-21T14:57:29.081Z,6.07
2023-01-21T14:58:33.839Z,6.36
2023-01-21T14:59:43.547Z,6.81
2023-01-21T15:00:46.566Z,10.05
2023-01-21T15:01:50.888Z,10.29
2023-01-21T15:03:04.140Z,7.76
2023-01-21T15:04:20.639Z,7.12
2023-01-21T15:05:27.605Z,6.58
2023-01-21T15:06:30.179Z,12.18
2023-01-21T15:07:40.236Z,9.57
2023-01-21T15:08:48.886Z,6.31
2023-01-21T15:09:55.706Z,6.92
2023-01-21T15:11:03.194Z,8.34
2023-01-21T15:12:16.544Z,8.59
2023-01-21T15:13:33.632Z,8.00
2023-01-21T15:14:41.799Z,7.20
2023-01-21T15:16:08.858Z,6.56
2023-01-21T15:17:45.566Z,7.84
2023-01-21T15:19:20.006Z,8.15
2023-01-21T15:20:46.131Z,7.32
2023-01-21T15:22:24.354Z,6.50
2023-01-21T15:23:39.569Z,6.62
2023-01-21T15:25:00.794Z,6.60
2023-01-21T15:26:17.974Z,8.29
2023-01-21T15:27:21.891Z,8.02
2023-01-21T15:28:43.459Z,7.30
2023-01-21T15:30:27.684Z,6.87
2023-01-21T15:31:45.571Z,5.35
2023-01-21T15:32:50.364Z,6.04
2023-01-21T15:33:58.195Z,7.03
2023-01-21T15:35:06.015Z,6.80
2023-01-21T15:36:24.291Z,6.61
2023-01-21T15:37:30.639Z,6.40
2023-01-21T15:38:40.753Z,6.58
2023-01-21T15:39:44.291Z,6.38
2023-01-21T15:40:52.632Z,7.14
2023-01-21T15:42:15.911Z,7.49
2023-01-21T15:43:27.280Z,9.03
2023-01-21T15:44:49.308Z,7.80
2023-01-21T15:46:07.726Z,6.90
2023-01-21T15:47:30.315Z,5.23
2023-01-21T15:48:57.169Z,7.74
2023-01-21T15:50:09.749Z,7.16